Time;durP1;ratioP1;P1;durP2;ratioP2;P2;SDS_P1;SDS_P2;PMS_P1;PMS_P2;Temp;Humidity;BMP_temperature;BMP_pressure;BME280_temperature;BME280_humidity;BME280_pressure;Samples;Min_cycle;Max_cycle;Signal;HPM_P1;HPM_P2
2022/08/07 00:00:58;;;;;;;3.78;2.28;;;28.30;42.10;;;;;;6033878;29;20152;-76
2022/08/07 00:03:59;;;;;;;2.75;2.03;;;28.30;42.20;;;;;;6017327;29;20034;-76
2022/08/07 00:07:00;;;;;;;2.92;1.95;;;28.20;42.30;;;;;;6016948;29;20120;-76
2022/08/07 00:10:01;;;;;;;2.90;2.20;;;28.20;42.50;;;;;;6016660;29;20117;-77
2022/08/07 00:13:04;;;;;;;7.63;2.20;;;28.10;42.50;;;;;;6017249;29;20124;-78
2022/08/07 00:16:05;;;;;;;2.45;2.00;;;28.10;42.70;;;;;;6033266;29;20050;-78
2022/08/07 00:19:07;;;;;;;9.77;2.00;;;28.10;42.70;;;;;;6017347;29;20042;-78
2022/08/07 00:22:08;;;;;;;2.15;1.88;;;28.00;42.70;;;;;;6033246;29;20371;-78
2022/08/07 00:25:09;;;;;;;6.22;2.17;;;28.00;42.70;;;;;;6016582;29;20037;-78
2022/08/07 00:28:10;;;;;;;3.05;2.10;;;28.00;42.80;;;;;;6016457;29;20033;-76
2022/08/07 00:31:11;;;;;;;3.70;2.20;;;28.00;42.90;;;;;;6031873;29;20459;-76
2022/08/07 00:34:12;;;;;;;4.28;2.05;;;27.90;42.90;;;;;;6016580;29;20124;-76
2022/08/07 00:37:14;;;;;;;5.70;2.08;;;27.90;43.10;;;;;;6030808;29;20104;-78
2022/08/07 00:40:15;;;;;;;4.15;2.03;;;27.80;43.10;;;;;;6016137;29;20033;-78
2022/08/07 00:43:16;;;;;;;4.40;2.20;;;27.80;43.30;;;;;;6031693;29;20044;-79
2022/08/07 00:46:17;;;;;;;2.50;2.30;;;27.70;44.10;;;;;;6019110;29;20049;-79
2022/08/07 00:49:18;;;;;;;2.50;2.03;;;27.60;43.60;;;;;;6032729;29;20045;-76
2022/08/07 00:52:19;;;;;;;2.22;1.98;;;27.60;43.70;;;;;;6014936;29;20041;-76
2022/08/07 00:55:20;;;;;;;3.00;2.20;;;27.50;43.90;;;;;;6018362;29;20088;-76
2022/08/07 00:58:22;;;;;;;2.45;1.77;;;27.40;44.00;;;;;;6015854;29;20026;-77
2022/08/07 01:01:23;;;;;;;5.40;2.15;;;27.40;44.00;;;;;;6026753;29;20345;-77
2022/08/07 01:04:24;;;;;;;2.55;1.90;;;27.40;44.00;;;;;;6016041;29;20041;-77
2022/08/07 01:07:26;;;;;;;2.42;2.08;;;27.40;44.10;;;;;;6014762;29;20057;-76
2022/08/07 01:10:27;;;;;;;5.03;2.50;;;27.40;44.10;;;;;;6010459;29;20364;-77
2022/08/07 01:13:28;;;;;;;3.05;2.47;;;27.40;44.20;;;;;;6001366;29;20078;-78
2022/08/07 01:16:30;;;;;;;3.70;2.45;;;27.30;44.30;;;;;;6016409;29;20060;-77
2022/08/07 01:19:32;;;;;;;4.20;2.17;;;27.30;44.40;;;;;;6021077;29;20340;-77
2022/08/07 01:22:34;;;;;;;3.08;2.38;;;27.30;44.50;;;;;;6022475;29;20045;-77
2022/08/07 01:25:36;;;;;;;3.25;2.22;;;27.30;44.50;;;;;;6018127;29;20044;-77
2022/08/07 01:28:38;;;;;;;4.45;2.40;;;27.20;44.40;;;;;;6000425;29;20543;-77
2022/08/07 01:31:40;;;;;;;3.22;2.20;;;27.20;44.50;;;;;;6031946;29;20483;-77
2022/08/07 01:34:44;;;;;;;3.67;2.05;;;27.20;44.50;;;;;;6006633;29;20045;-77
2022/08/07 01:37:46;;;;;;;2.25;2.05;;;27.20;44.60;;;;;;6003132;29;20054;-76
2022/08/07 01:40:49;;;;;;;2.85;2.50;;;27.20;44.70;;;;;;6015497;29;20041;-77
2022/08/07 01:43:51;;;;;;;3.45;1.95;;;27.20;44.80;;;;;;6016744;29;20048;-76
2022/08/07 01:46:54;;;;;;;4.95;2.60;;;27.10;44.90;;;;;;6015592;29;20041;-77
2022/08/07 01:49:55;;;;;;;3.08;1.98;;;27.10;45.00;;;;;;6002987;29;20041;-77
2022/08/07 01:53:01;;;;;;;5.43;2.33;;;27.00;45.10;;;;;;6019192;29;20049;-77
2022/08/07 01:56:09;;;;;;;6.63;2.20;;;27.00;45.20;;;;;;6019846;29;20045;-76
2022/08/07 01:59:31;;;;;;;3.28;2.45;;;27.00;45.30;;;;;;6020025;29;20116;-76
2022/08/07 02:02:35;;;;;;;3.90;2.50;;;27.00;45.50;;;;;;6004634;29;20436;-77
2022/08/07 02:05:45;;;;;;;4.15;2.35;;;26.90;45.50;;;;;;6020221;29;20041;-77
2022/08/07 02:08:49;;;;;;;4.60;2.42;;;26.90;45.60;;;;;;6018845;29;20034;-77
2022/08/07 02:11:51;;;;;;;3.60;2.42;;;26.80;45.80;;;;;;6016316;29;20041;-77
2022/08/07 02:14:55;;;;;;;3.72;2.38;;;26.80;45.80;;;;;;6018516;29;20042;-77
2022/08/07 02:18:17;;;;;;;2.97;2.30;;;26.70;45.90;;;;;;6019609;29;20157;-77
2022/08/07 02:21:18;;;;;;;3.30;2.10;;;26.70;45.90;;;;;;6019466;29;20097;-78
2022/08/07 02:24:20;;;;;;;2.92;2.50;;;26.70;46.00;;;;;;6018499;29;20389;-77
2022/08/07 02:27:24;;;;;;;6.65;2.47;;;26.70;46.10;;;;;;6003995;29;20034;-77
2022/08/07 02:30:27;;;;;;;3.47;2.10;;;26.60;46.10;;;;;;6028244;29;20124;-78
2022/08/07 02:33:30;;;;;;;4.05;2.30;;;26.60;46.20;;;;;;6018960;29;20045;-77
2022/08/07 02:36:32;;;;;;;3.42;2.47;;;26.50;46.30;;;;;;6018840;29;20037;-77
2022/08/07 02:39:39;;;;;;;3.83;2.20;;;26.50;46.30;;;;;;6019930;29;20061;-78
2022/08/07 02:42:42;;;;;;;4.32;2.55;;;26.50;46.40;;;;;;6035589;29;20120;-78
2022/08/07 02:45:46;;;;;;;3.13;2.30;;;26.50;46.50;;;;;;6020298;29;20045;-77
2022/08/07 02:48:47;;;;;;;3.42;2.35;;;26.50;46.60;;;;;;6038139;29;20331;-77
2022/08/07 02:51:49;;;;;;;2.67;2.38;;;26.40;46.60;;;;;;6019116;29;20391;-77
2022/08/07 02:54:52;;;;;;;3.15;1.98;;;26.40;46.70;;;;;;5994200;29;20071;-77
2022/08/07 02:58:01;;;;;;;4.05;2.38;;;26.40;46.80;;;;;;6020016;29;20152;-77
2022/08/07 03:01:03;;;;;;;5.65;2.72;;;26.40;46.80;;;;;;5999249;29;20041;-77
2022/08/07 03:04:07;;;;;;;3.40;2.60;;;26.40;46.80;;;;;;6004425;29;20061;-77
2022/08/07 03:07:10;;;;;;;3.28;2.40;;;26.40;46.90;;;;;;6020744;29;20069;-78
2022/08/07 03:10:12;;;;;;;3.42;2.40;;;26.40;46.90;;;;;;6020861;29;20041;-77
2022/08/07 03:13:20;;;;;;;4.88;2.55;;;26.40;46.90;;;;;;6021349;29;20038;-77
2022/08/07 03:16:23;;;;;;;2.35;2.10;;;26.40;46.90;;;;;;6009485;29;20057;-78
2022/08/07 03:19:25;;;;;;;3.88;2.75;;;26.40;47.10;;;;;;6029901;29;20171;-77
2022/08/07 03:22:28;;;;;;;3.00;2.40;;;26.30;47.20;;;;;;6020760;29;20072;-77
2022/08/07 03:25:32;;;;;;;2.75;2.35;;;26.30;47.50;;;;;;6020344;29;20074;-77
2022/08/07 03:28:35;;;;;;;3.78;2.40;;;26.20;47.50;;;;;;6036623;29;20471;-77
2022/08/07 03:31:39;;;;;;;3.53;2.50;;;26.20;47.60;;;;;;6005670;29;20502;-77
2022/08/07 03:34:43;;;;;;;3.30;2.50;;;26.10;47.60;;;;;;6019829;29;20041;-77
2022/08/07 03:37:54;;;;;;;8.15;2.70;;;26.20;47.80;;;;;;6019443;29;20038;-77
2022/08/07 03:41:02;;;;;;;4.40;2.33;;;26.10;47.80;;;;;;6020468;29;20113;-78
2022/08/07 03:44:04;;;;;;;5.22;2.45;;;26.10;47.80;;;;;;6024127;29;20409;-78
2022/08/07 03:47:07;;;;;;;2.80;2.40;;;26.10;47.80;;;;;;6020265;29;20117;-78
2022/08/07 03:50:08;;;;;;;5.38;2.30;;;26.10;47.90;;;;;;6020012;29;20073;-78
2022/08/07 03:53:13;;;;;;;2.30;2.10;;;26.00;48.00;;;;;;6018604;29;20050;-78
2022/08/07 03:56:19;;;;;;;3.22;2.60;;;26.10;48.10;;;;;;6020414;29;20034;-79
2022/08/07 03:59:20;;;;;;;3.47;2.38;;;26.00;48.10;;;;;;6019672;29;20041;-77
2022/08/07 04:02:24;;;;;;;4.53;2.58;;;26.00;48.10;;;;;;6014616;29;20037;-77
2022/08/07 04:05:26;;;;;;;3.42;2.40;;;25.90;48.10;;;;;;6019868;29;20113;-77
2022/08/07 04:08:27;;;;;;;5.80;2.75;;;25.90;48.10;;;;;;6019767;29;20199;-76
2022/08/07 04:11:32;;;;;;;5.90;2.90;;;25.90;48.20;;;;;;6019689;29;20086;-76
2022/08/07 04:14:34;;;;;;;3.50;2.60;;;25.90;48.30;;;;;;6019591;29;20052;-76
2022/08/07 04:17:35;;;;;;;4.40;2.85;;;25.90;48.30;;;;;;6036250;29;20451;-77
2022/08/07 04:20:36;;;;;;;4.15;2.75;;;25.90;48.50;;;;;;6019532;29;20041;-77
2022/08/07 04:23:37;;;;;;;3.63;2.40;;;25.90;48.70;;;;;;6018613;29;20041;-77
2022/08/07 04:26:39;;;;;;;4.47;2.50;;;25.80;48.80;;;;;;6004317;29;20042;-76
2022/08/07 04:29:42;;;;;;;4.30;2.13;;;25.80;48.80;;;;;;6018687;29;20029;-76
2022/08/07 04:32:44;;;;;;;4.55;3.00;;;25.80;49.00;;;;;;5994732;29;20042;-76
2022/08/07 04:40:08;;;;;;;4.88;2.95;;;25.70;49.20;;;;;;6034752;29;20048;-76
2022/08/07 04:43:10;;;;;;;3.80;2.90;;;25.60;49.20;;;;;;6017106;29;20509;-76
2022/08/07 04:46:25;;;;;;;2.92;2.42;;;25.60;49.40;;;;;;6036039;29;20041;-76
2022/08/07 04:49:35;;;;;;;3.97;2.40;;;25.60;49.50;;;;;;6033436;29;20120;-76
2022/08/07 04:52:56;;;;;;;4.47;2.78;;;25.60;49.50;;;;;;6018386;29;20124;-76
2022/08/07 04:56:26;;;;;;;3.50;2.42;;;25.60;49.50;;;;;;6018472;29;20048;-77
2022/08/07 04:59:38;;;;;;;4.45;2.90;;;25.60;49.50;;;;;;6039371;29;20101;-77
2022/08/07 05:03:04;;;;;;;3.97;2.45;;;25.60;49.60;;;;;;5993583;29;20094;-77
2022/08/07 05:06:33;;;;;;;4.97;3.08;;;25.60;49.70;;;;;;6013852;29;20136;-77
2022/08/07 05:10:11;;;;;;;7.32;3.10;;;25.50;49.70;;;;;;6014307;29;20366;-77
2022/08/07 05:13:26;;;;;;;3.55;2.47;;;25.50;49.80;;;;;;6016714;29;20079;-77
2022/08/07 05:16:30;;;;;;;11.15;3.00;;;25.50;49.90;;;;;;6029978;29;20471;-77
2022/08/07 05:19:37;;;;;;;3.90;3.00;;;25.50;50.00;;;;;;6013750;29;20121;-77
2022/08/07 05:22:40;;;;;;;4.25;3.03;;;25.40;50.10;;;;;;6014878;29;20047;-77
2022/08/07 05:25:43;;;;;;;9.52;2.78;;;25.40;50.10;;;;;;6013396;29;20538;-78
2022/08/07 05:28:45;;;;;;;3.55;2.45;;;25.50;50.20;;;;;;6013563;29;20360;-77
2022/08/07 05:31:50;;;;;;;2.95;2.47;;;25.50;50.80;;;;;;6014740;29;20106;-77
2022/08/07 05:34:55;;;;;;;3.63;2.45;;;25.50;50.20;;;;;;6014322;29;20124;-77
2022/08/07 05:37:59;;;;;;;4.32;3.15;;;25.50;50.20;;;;;;6014388;29;20120;-77
2022/08/07 05:41:02;;;;;;;4.22;2.88;;;25.50;50.20;;;;;;6029987;29;20467;-77
2022/08/07 05:44:03;;;;;;;4.93;3.00;;;25.50;50.30;;;;;;6031663;29;20471;-77
2022/08/07 05:47:05;;;;;;;3.78;2.50;;;25.50;50.50;;;;;;6000620;29;20349;-77
2022/08/07 05:50:07;;;;;;;3.28;2.40;;;25.40;50.60;;;;;;6010053;29;20038;-78
2022/08/07 05:53:09;;;;;;;3.17;2.30;;;25.30;50.60;;;;;;6015605;29;20048;-78
2022/08/07 05:56:13;;;;;;;3.55;2.85;;;25.40;50.60;;;;;;6016731;29;20037;-78
2022/08/07 05:59:21;;;;;;;3.67;2.65;;;25.40;50.60;;;;;;6012657;29;20424;-77
2022/08/07 06:02:28;;;;;;;;;;;25.50;50.50;;;;;;6013791;29;20046;-77
2022/08/07 06:05:33;;;;;;;3.90;2.58;;;25.50;50.40;;;;;;6010729;29;20011;-77
2022/08/07 06:08:41;;;;;;;3.65;3.03;;;25.60;50.20;;;;;;6017218;29;20045;-78
2022/08/07 06:11:42;;;;;;;6.68;2.83;;;25.60;50.20;;;;;;6032902;29;20042;-78
2022/08/07 06:14:43;;;;;;;2.55;2.28;;;25.70;50.20;;;;;;6000080;29;20053;-77
2022/08/07 06:17:45;;;;;;;4.40;2.70;;;25.70;50.40;;;;;;6016903;29;20101;-77
2022/08/07 06:20:46;;;;;;;4.43;3.20;;;25.70;50.10;;;;;;6016098;29;20045;-77
2022/08/07 06:23:48;;;;;;;4.07;3.00;;;25.80;50.10;;;;;;6001609;29;20037;-78
2022/08/07 06:26:49;;;;;;;2.95;2.53;;;25.80;49.90;;;;;;6015515;29;20121;-78
2022/08/07 06:29:51;;;;;;;3.22;2.42;;;25.90;49.90;;;;;;6016220;29;20052;-78
2022/08/07 06:32:53;;;;;;;8.32;3.17;;;26.00;49.70;;;;;;6016757;29;20037;-78
2022/08/07 06:35:55;;;;;;;4.28;2.90;;;26.10;49.50;;;;;;6016931;29;20057;-78
2022/08/07 06:38:56;;;;;;;4.75;2.63;;;26.00;49.40;;;;;;6013802;29;20038;-78
2022/08/07 06:42:22;;;;;;;4.60;3.03;;;26.00;49.60;;;;;;6010105;29;20042;-78
2022/08/07 06:45:46;;;;;;;5.35;3.40;;;26.00;49.60;;;;;;5963011;29;20346;-78
2022/08/07 06:48:48;;;;;;;3.47;2.53;;;26.10;49.50;;;;;;5950290;29;20043;-78
2022/08/07 06:51:55;;;;;;;3.17;2.85;;;26.10;49.50;;;;;;5950692;29;20047;-77
2022/08/07 06:54:59;;;;;;;5.70;3.22;;;26.10;49.50;;;;;;5963588;29;20146;-77
2022/08/07 06:58:03;;;;;;;4.03;2.90;;;26.20;49.50;;;;;;5948969;29;20393;-76
2022/08/07 07:01:11;;;;;;;5.03;3.20;;;26.20;49.40;;;;;;5948527;29;20117;-76
2022/08/07 07:04:12;;;;;;;5.15;3.00;;;26.30;49.40;;;;;;5950061;29;20394;-77
2022/08/07 07:07:16;;;;;;;3.78;2.85;;;26.40;49.20;;;;;;5964525;29;20038;-77
2022/08/07 07:10:33;;;;;;;5.35;3.03;;;26.40;48.90;;;;;;5949866;29;20034;-77
2022/08/07 07:13:48;;;;;;;9.55;3.22;;;26.50;48.90;;;;;;5963902;29;20042;-77
2022/08/07 07:16:52;;;;;;;8.30;3.05;;;26.60;48.70;;;;;;5948669;29;20508;-77
2022/08/07 07:19:58;;;;;;;11.50;2.85;;;26.70;48.20;;;;;;5955631;29;20184;-77
2022/08/07 07:23:00;;;;;;;5.07;3.05;;;26.80;48.10;;;;;;6015926;29;20045;-76
2022/08/07 07:26:06;;;;;;;5.45;2.75;;;26.90;48.00;;;;;;6044040;29;20030;-77
2022/08/07 07:29:14;;;;;;;6.15;3.22;;;27.00;47.90;;;;;;6035484;29;20490;-77
2022/08/07 07:32:16;;;;;;;;;;;27.10;47.80;;;;;;6028821;29;20042;-77
2022/08/07 07:35:17;;;;;;;5.40;3.10;;;27.20;47.50;;;;;;6035920;29;19925;-77
2022/08/07 07:38:21;;;;;;;3.83;2.65;;;27.30;47.20;;;;;;6033712;29;20042;-77
2022/08/07 07:41:24;;;;;;;3.90;3.00;;;27.40;47.20;;;;;;6033029;29;20106;-77
2022/08/07 07:44:27;;;;;;;12.95;3.83;;;27.50;47.00;;;;;;6035975;29;20440;-77
2022/08/07 07:47:30;;;;;;;4.72;3.03;;;27.60;46.80;;;;;;6033841;29;20116;-77
2022/08/07 07:50:31;;;;;;;4.38;3.10;;;27.70;46.70;;;;;;6034295;29;20038;-77
2022/08/07 07:53:38;;;;;;;8.60;3.65;;;27.80;46.50;;;;;;6029047;29;20387;-77
2022/08/07 07:56:42;;;;;;;6.38;3.22;;;27.80;46.40;;;;;;6035041;29;20049;-77
2022/08/07 07:59:44;;;;;;;5.10;3.30;;;27.80;46.30;;;;;;6034969;29;20493;-77
2022/08/07 08:02:48;;;;;;;4.13;2.80;;;27.90;46.20;;;;;;6034937;29;20112;-77
2022/08/07 08:05:51;;;;;;;4.78;2.95;;;28.00;46.20;;;;;;6036365;29;20447;-78
2022/08/07 08:08:53;;;;;;;4.00;2.90;;;28.10;46.10;;;;;;6036289;29;20939;-76
2022/08/07 08:11:55;;;;;;;4.20;3.05;;;28.20;45.90;;;;;;6035014;29;20053;-77
2022/08/07 08:14:56;;;;;;;3.72;2.85;;;28.40;45.70;;;;;;6035319;29;20050;-76
2022/08/07 08:17:59;;;;;;;2.88;2.58;;;28.50;45.50;;;;;;6035006;29;20490;-77
2022/08/07 08:21:01;;;;;;;4.43;3.10;;;28.60;45.20;;;;;;6034748;29;20479;-76
2022/08/07 08:27:28;;;;;;;3.60;3.08;;;28.80;44.80;;;;;;6033243;29;20030;-77
2022/08/07 08:30:33;;;;;;;10.48;3.08;;;28.90;44.60;;;;;;6033036;29;20049;-77
2022/08/07 08:33:37;;;;;;;3.83;2.92;;;29.00;44.40;;;;;;6033299;29;20052;-77
2022/08/07 08:36:39;;;;;;;9.95;3.30;;;29.10;44.30;;;;;;6033091;29;20048;-77
2022/08/07 08:39:43;;;;;;;5.68;2.92;;;29.20;44.20;;;;;;6034824;29;20046;-78
2022/08/07 08:43:21;;;;;;;4.15;2.88;;;29.20;44.20;;;;;;6034548;29;20057;-76
2022/08/07 08:46:40;;;;;;;5.18;3.03;;;29.30;44.00;;;;;;6032913;29;20052;-77
2022/08/07 08:50:25;;;;;;;4.10;2.97;;;29.50;43.70;;;;;;6017877;29;20115;-79
2022/08/07 08:53:25;;;;;;;4.78;3.00;;;29.70;43.60;;;;;;5957053;29;20058;-78
2022/08/07 08:56:31;;;;;;;3.78;2.92;;;29.70;43.30;;;;;;5982391;29;20061;-77
2022/08/07 08:59:41;;;;;;;5.40;3.00;;;29.80;43.10;;;;;;5981146;29;20049;-77
2022/08/07 09:03:09;;;;;;;4.72;3.17;;;29.80;42.80;;;;;;5983426;29;20061;-77
2022/08/07 09:06:40;;;;;;;3.30;2.88;;;29.90;42.90;;;;;;5983994;29;20146;-77
2022/08/07 09:10:06;;;;;;;7.20;3.20;;;30.00;42.60;;;;;;5855927;30;20051;-76
2022/08/07 09:13:18;;;;;;;3.92;3.15;;;30.10;42.30;;;;;;5867385;30;20199;-78
2022/08/07 09:16:35;;;;;;;6.18;2.95;;;30.20;41.90;;;;;;5870247;30;20037;-77
2022/08/07 09:20:00;;;;;;;8.20;3.67;;;30.40;41.80;;;;;;5868345;30;20061;-78
2022/08/07 09:23:30;;;;;;;7.97;3.17;;;30.50;41.40;;;;;;5871206;30;20037;-77
2022/08/07 09:26:44;;;;;;;7.18;3.00;;;30.60;41.40;;;;;;5861692;30;20045;-77
2022/08/07 09:29:47;;;;;;;4.97;3.00;;;30.70;41.20;;;;;;5932135;29;20378;-76
2022/08/07 09:32:55;;;;;;;4.20;3.13;;;30.80;41.00;;;;;;5938311;29;20057;-78
2022/08/07 09:36:05;;;;;;;6.47;3.10;;;31.00;40.70;;;;;;5914257;29;20077;-79
2022/08/07 09:39:05;;;;;;;8.43;3.45;;;31.10;40.30;;;;;;5920068;29;20261;-79
2022/08/07 09:42:27;;;;;;;5.43;3.17;;;31.20;40.20;;;;;;5937733;29;20082;-79
2022/08/07 09:45:43;;;;;;;7.70;2.97;;;31.20;40.00;;;;;;5964229;29;20482;-76
2022/08/07 09:48:46;;;;;;;4.20;3.75;;;31.30;39.70;;;;;;6013678;29;20106;-77
2022/08/07 09:52:29;;;;;;;9.60;3.33;;;31.30;39.60;;;;;;6031412;29;20052;-78
2022/08/07 09:55:54;;;;;;;6.88;3.28;;;31.20;39.60;;;;;;6026255;29;20056;-79
2022/08/07 09:59:06;;;;;;;7.55;3.30;;;31.30;39.60;;;;;;6029120;29;20129;-78
2022/08/07 10:02:22;;;;;;;9.80;3.50;;;31.40;39.30;;;;;;6027596;29;20048;-79
2022/08/07 10:05:52;;;;;;;4.97;3.35;;;31.50;39.10;;;;;;6024936;29;20037;-77
2022/08/07 10:09:29;;;;;;;7.47;3.13;;;31.60;38.90;;;;;;6023240;29;20515;-77
2022/08/07 10:12:50;;;;;;;5.63;3.75;;;31.60;38.80;;;;;;5923317;29;20505;-77
2022/08/07 10:16:13;;;;;;;4.72;3.20;;;31.50;38.70;;;;;;5942439;29;20043;-77
2022/08/07 10:19:17;;;;;;;4.93;3.75;;;31.60;38.70;;;;;;5911496;29;20035;-77
2022/08/07 10:22:42;;;;;;;5.75;4.40;;;31.60;38.50;;;;;;5939779;29;20357;-77
2022/08/07 10:26:16;;;;;;;5.30;3.97;;;31.60;38.40;;;;;;5941361;29;20397;-78
2022/08/07 10:29:57;;;;;;;9.32;4.85;;;31.60;38.20;;;;;;5939807;29;20043;-78
2022/08/07 10:33:21;;;;;;;4.88;3.97;;;31.60;38.20;;;;;;5939231;29;20039;-78
2022/08/07 10:36:32;;;;;;;5.95;4.25;;;31.50;38.10;;;;;;5925636;29;20027;-77
2022/08/07 10:39:55;;;;;;;4.90;4.07;;;31.50;38.00;;;;;;5924788;29;20060;-77
2022/08/07 10:43:26;;;;;;;4.35;3.70;;;31.50;38.00;;;;;;5938539;29;20054;-78
2022/08/07 10:46:34;;;;;;;8.02;4.28;;;31.60;37.90;;;;;;5949915;29;20097;-77
2022/08/07 10:49:47;;;;;;;5.40;4.30;;;31.70;37.70;;;;;;5960337;29;20101;-77
2022/08/07 10:52:59;;;;;;;7.22;4.43;;;31.80;37.60;;;;;;6034396;29;20514;-79
2022/08/07 10:56:04;;;;;;;6.80;4.50;;;31.90;37.40;;;;;;6033123;29;20033;-77
2022/08/07 10:59:31;;;;;;;4.60;3.70;;;32.10;37.30;;;;;;6031732;29;20041;-78
2022/08/07 11:02:50;;;;;;;6.25;3.80;;;32.20;37.00;;;;;;6031371;29;20060;-77
2022/08/07 11:06:09;;;;;;;6.70;3.95;;;32.40;36.80;;;;;;6032548;29;20049;-77
2022/08/07 11:09:43;;;;;;;4.68;4.07;;;32.80;36.10;;;;;;6034059;29;20044;-78
2022/08/07 11:13:13;;;;;;;5.30;3.78;;;33.30;35.20;;;;;;6028034;29;20072;-78
2022/08/07 11:16:32;;;;;;;5.05;3.83;;;33.80;34.40;;;;;;6016746;29;20041;-77
2022/08/07 11:19:44;;;;;;;4.95;3.28;;;34.10;33.90;;;;;;6023050;29;20077;-79
2022/08/07 11:23:13;;;;;;;4.00;3.50;;;34.50;33.70;;;;;;6031994;29;20062;-77
2022/08/07 11:30:23;;;;;;;4.68;3.30;;;35.40;32.60;;;;;;6035290;29;19920;-78
2022/08/07 11:33:46;;;;;;;4.83;3.57;;;35.50;31.80;;;;;;6035177;29;20068;-77
2022/08/07 11:36:57;;;;;;;7.18;3.15;;;35.70;31.30;;;;;;6035205;29;20366;-77
2022/08/07 11:40:17;;;;;;;5.65;3.20;;;35.80;31.00;;;;;;6049539;29;20072;-76
2022/08/07 11:43:31;;;;;;;5.60;3.35;;;35.90;30.90;;;;;;6013183;29;20357;-77
2022/08/07 11:46:56;;;;;;;3.75;3.25;;;36.20;30.50;;;;;;5996838;29;20034;-78
2022/08/07 11:50:21;;;;;;;4.07;3.15;;;36.50;30.30;;;;;;6013443;29;20057;-77
2022/08/07 11:53:51;;;;;;;3.17;2.78;;;36.50;30.00;;;;;;6002924;29;20495;-77
2022/08/07 11:57:20;;;;;;;5.03;3.05;;;36.60;30.10;;;;;;6005081;29;20026;-77
2022/08/07 12:00:37;;;;;;;3.58;3.22;;;36.70;30.50;;;;;;5946371;29;20540;-77
2022/08/07 12:04:16;;;;;;;5.28;3.50;;;36.80;29.80;;;;;;5961451;29;20130;-76
2022/08/07 12:07:37;;;;;;;3.95;3.20;;;37.20;29.50;;;;;;5871908;30;20047;-76
2022/08/07 12:10:43;;;;;;;6.25;3.20;;;37.60;29.30;;;;;;5858549;30;20051;-77
2022/08/07 12:14:07;;;;;;;4.07;2.63;;;38.00;28.70;;;;;;5872096;30;20049;-76
2022/08/07 12:17:15;;;;;;;3.63;2.90;;;38.20;28.30;;;;;;5872062;30;20347;-77
2022/08/07 12:20:25;;;;;;;3.25;2.95;;;38.50;28.10;;;;;;5858058;30;20137;-78
2022/08/07 12:23:41;;;;;;;3.58;2.60;;;38.70;27.70;;;;;;5858177;30;20048;-77
2022/08/07 12:26:57;;;;;;;4.50;2.85;;;38.90;27.40;;;;;;5873254;30;20079;-78
2022/08/07 12:30:05;;;;;;;3.75;2.97;;;39.00;27.00;;;;;;5871894;30;20052;-77
2022/08/07 12:33:18;;;;;;;4.38;2.72;;;39.10;26.80;;;;;;5871781;30;20146;-77
2022/08/07 12:36:20;;;;;;;3.22;2.70;;;39.00;27.20;;;;;;5891116;29;20039;-77
2022/08/07 12:39:24;;;;;;;8.25;2.90;;;39.20;26.60;;;;;;5933915;29;20488;-78
2022/08/07 12:42:27;;;;;;;4.57;2.90;;;39.40;26.30;;;;;;5915868;29;20046;-77
2022/08/07 12:45:36;;;;;;;3.60;2.80;;;39.90;25.90;;;;;;6011677;29;20864;-78
2022/08/07 12:49:01;;;;;;;2.97;2.08;;;40.20;25.60;;;;;;6008455;29;20336;-78
2022/08/07 12:52:07;;;;;;;4.72;2.95;;;40.60;25.00;;;;;;6005261;29;20045;-78
2022/08/07 12:55:23;;;;;;;4.67;2.80;;;41.00;24.70;;;;;;6006237;29;20936;-78
2022/08/07 12:58:27;;;;;;;5.35;2.40;;;41.00;24.60;;;;;;6017253;29;20061;-78
2022/08/07 13:01:41;;;;;;;8.38;2.70;;;41.10;24.30;;;;;;6005074;29;20038;-78
2022/08/07 13:05:01;;;;;;;4.72;2.75;;;41.40;24.10;;;;;;6009101;29;20046;-77
2022/08/07 13:08:29;;;;;;;7.75;2.78;;;42.00;23.80;;;;;;6002402;29;20068;-77
2022/08/07 13:11:42;;;;;;;2.78;2.38;;;42.50;23.20;;;;;;5997791;29;20038;-78
2022/08/07 13:14:56;;;;;;;3.80;2.60;;;42.80;22.90;;;;;;6003747;29;20083;-78
2022/08/07 13:18:37;;;;;;;2.60;2.20;;;43.30;22.50;;;;;;6019117;29;20088;-78
2022/08/07 13:21:43;;;;;;;7.60;2.42;;;43.70;21.90;;;;;;6003629;29;20054;-78
2022/08/07 13:24:52;;;;;;;7.18;2.58;;;44.20;21.60;;;;;;6004328;29;20038;-77
2022/08/07 13:27:59;;;;;;;6.25;2.95;;;44.60;21.20;;;;;;6007562;29;20483;-77
2022/08/07 13:31:07;;;;;;;2.80;2.28;;;45.00;20.90;;;;;;6005310;29;20117;-77
2022/08/07 13:34:47;;;;;;;5.20;2.70;;;45.60;20.60;;;;;;6019704;29;20145;-76
2022/08/07 13:38:05;;;;;;;3.30;2.42;;;45.90;20.20;;;;;;6002838;29;20049;-76
2022/08/07 13:41:29;;;;;;;3.03;2.50;;;45.90;20.00;;;;;;6003135;29;20041;-76
2022/08/07 13:44:37;;;;;;;3.22;2.40;;;46.00;19.90;;;;;;6003082;29;20526;-76
2022/08/07 13:47:40;;;;;;;3.55;2.60;;;45.80;19.80;;;;;;6002148;29;20484;-76
2022/08/07 13:50:42;;;;;;;5.13;2.33;;;45.70;19.80;;;;;;5987062;29;20487;-76
2022/08/07 13:53:53;;;;;;;2.75;2.55;;;45.90;19.70;;;;;;6004537;29;20054;-76
2022/08/07 13:56:57;;;;;;;6.80;2.67;;;46.00;19.60;;;;;;5990078;29;20456;-77
2022/08/07 14:00:00;;;;;;;3.15;2.20;;;46.30;19.30;;;;;;6006396;29;20054;-76
2022/08/07 14:03:06;;;;;;;3.15;2.42;;;46.80;19.10;;;;;;5991042;29;20053;-76
2022/08/07 14:06:11;;;;;;;3.80;2.50;;;47.10;18.80;;;;;;6007301;29;20034;-76
2022/08/07 14:09:27;;;;;;;6.25;2.65;;;47.70;18.70;;;;;;6005888;29;20034;-76
2022/08/07 14:12:32;;;;;;;2.95;2.15;;;48.00;18.30;;;;;;5997005;29;20133;-76
2022/08/07 14:15:40;;;;;;;3.10;2.80;;;48.20;18.10;;;;;;6006874;29;20130;-76
2022/08/07 14:18:50;;;;;;;6.70;3.08;;;48.30;17.90;;;;;;6007968;29;20623;-76
2022/08/07 14:21:53;;;;;;;2.47;2.05;;;48.00;17.90;;;;;;6007356;29;20119;-76
2022/08/07 14:25:10;;;;;;;2.35;2.15;;;47.90;18.00;;;;;;6006247;29;20376;-76
2022/08/07 14:28:12;;;;;;;;;;;47.60;18.10;;;;;;6004738;29;20129;-76
2022/08/07 14:31:15;;;;;;;2.92;2.60;;;47.80;18.10;;;;;;6006484;29;19916;-75
2022/08/07 14:34:21;;;;;;;4.75;3.03;;;47.90;18.00;;;;;;5989170;29;20480;-74
2022/08/07 14:37:23;;;;;;;7.20;3.95;;;47.90;18.00;;;;;;6006539;29;20050;-76
2022/08/07 14:40:26;;;;;;;5.15;4.32;;;48.10;17.80;;;;;;5992089;29;20112;-76
2022/08/07 14:43:29;;;;;;;7.18;4.03;;;48.10;17.60;;;;;;6004600;29;20500;-75
2022/08/07 14:46:31;;;;;;;5.28;3.60;;;47.70;17.50;;;;;;5989939;29;20098;-76
2022/08/07 14:49:36;;;;;;;4.10;3.70;;;46.80;18.20;;;;;;6005480;29;20136;-76
2022/08/07 14:52:38;;;;;;;5.03;3.85;;;45.40;19.20;;;;;;6009165;29;20034;-76
2022/08/07 14:55:43;;;;;;;4.35;3.83;;;43.90;20.20;;;;;;5991362;29;20054;-75
2022/08/07 14:58:49;;;;;;;3.03;2.47;;;42.80;21.10;;;;;;5997266;29;20097;-76
2022/08/07 15:01:51;;;;;;;2.83;2.42;;;41.80;21.80;;;;;;6012533;29;20488;-73
2022/08/07 15:04:52;;;;;;;11.18;3.03;;;40.70;22.70;;;;;;6011818;29;20186;-76
2022/08/07 15:07:55;;;;;;;6.53;2.80;;;39.80;23.50;;;;;;6001358;29;20523;-76
2022/08/07 15:11:08;;;;;;;4.68;3.42;;;38.90;24.30;;;;;;6011623;29;20041;-75
2022/08/07 15:14:15;;;;;;;7.10;3.63;;;38.10;25.10;;;;;;5979907;29;20042;-78
2022/08/07 15:17:20;;;;;;;4.80;3.55;;;37.50;25.70;;;;;;6011763;29;20053;-78
2022/08/07 15:20:25;;;;;;;4.28;2.90;;;37.00;26.20;;;;;;6012133;29;20037;-78
2022/08/07 15:23:28;;;;;;;3.65;2.97;;;36.60;26.50;;;;;;5994911;29;20109;-76
2022/08/07 15:26:57;;;;;;;5.72;3.90;;;36.30;26.80;;;;;;5995512;29;20349;-75
2022/08/07 15:29:59;;;;;;;;;;;36.10;27.10;;;;;;5994795;29;20060;-75
2022/08/07 15:33:02;;;;;;;5.07;3.47;;;36.10;27.10;;;;;;5986384;29;19916;-75
2022/08/07 15:36:06;;;;;;;3.63;2.83;;;36.40;27.10;;;;;;5979243;29;20042;-75
2022/08/07 15:39:11;;;;;;;4.63;2.70;;;37.50;26.30;;;;;;5993290;29;20037;-76
2022/08/07 15:42:36;;;;;;;3.80;3.15;;;38.90;24.90;;;;;;5999498;29;20105;-75
2022/08/07 15:45:40;;;;;;;4.50;3.47;;;40.30;23.80;;;;;;6008712;29;20046;-74
2022/08/07 15:48:43;;;;;;;7.45;3.70;;;41.20;22.80;;;;;;6010527;29;20128;-75
2022/08/07 15:51:46;;;;;;;4.63;3.00;;;41.70;22.30;;;;;;6010405;29;20038;-75
2022/08/07 15:54:50;;;;;;;4.38;2.67;;;42.00;22.00;;;;;;6008178;29;20118;-76
2022/08/07 15:57:53;;;;;;;15.48;2.45;;;42.00;21.90;;;;;;6008469;29;20056;-74
2022/08/07 16:00:54;;;;;;;5.35;2.35;;;42.00;21.80;;;;;;6009169;29;20114;-74
2022/08/07 16:04:01;;;;;;;3.13;2.20;;;42.00;21.80;;;;;;6009182;29;20042;-75
2022/08/07 16:07:07;;;;;;;3.97;2.08;;;41.90;21.80;;;;;;6006074;29;20129;-74
2022/08/07 16:10:23;;;;;;;4.07;3.10;;;41.80;21.80;;;;;;6008600;29;20129;-75
2022/08/07 16:13:48;;;;;;;3.75;3.00;;;41.40;22.00;;;;;;6008210;29;20046;-73
2022/08/07 16:16:52;;;;;;;5.07;3.42;;;41.10;22.30;;;;;;6007385;29;20049;-74
2022/08/07 16:20:18;;;;;;;4.10;2.65;;;41.00;22.40;;;;;;6007564;29;20371;-75
2022/08/07 16:23:50;;;;;;;5.22;3.78;;;41.00;22.40;;;;;;6007091;29;20046;-75
2022/08/07 16:26:54;;;;;;;4.65;3.42;;;41.20;22.20;;;;;;6003145;29;20398;-73
2022/08/07 16:30:14;;;;;;;4.18;3.10;;;41.30;22.10;;;;;;6004621;29;20137;-74
2022/08/07 16:33:16;;;;;;;5.35;3.45;;;41.60;22.10;;;;;;6010931;29;20646;-75
2022/08/07 16:36:26;;;;;;;3.63;2.72;;;41.80;21.80;;;;;;6008377;29;20038;-75